KMLP - Mullan Pass
Updated: Fri, 22-Jun-2018 10:53am PDT
Few clouds
Few clouds
 Wind from varies
Wind: varies at 3 mph , 6 km/h
Temperature : 61°F , 16°C
Dew Point : 43°F , 6°C
Humidity : 52%
Barometer : 30.12 inHg , 1020 hPa
Clouds : Few clouds
Visibility : 10 miles , 16 km
2018/06/22 17:53 KMLP 221753Z AUTO VRB03KT 10SM FEW030 16/06 A3012 RMK AO2 SLP120 T01560056 10156 20089 58000 $

 

KCOE - Coeur d Alene
Updated: Fri, 22-Jun-2018 10:56am PDT
Overcast
Overcast
 Wind from SW
Wind: SW at 12 mph , 19 km/h, Gust: 16 mph , 26 km/h
Temperature : 70°F , 21°C
Dew Point : 55°F , 13°C
Humidity : 60%
Barometer : 30.01 inHg , 1016.3 hPa
Clouds : Overcast
Visibility : 10 miles , 16 km
2018/06/22 17:56 KCOE 221756Z AUTO 23010G14KT 180V280 10SM OVC035 21/13 A3001 RMK AO2 SLP169 6//// T02060133 10206 20144 57003 PNO $

 

KLWS - Lewiston
Updated: Fri, 22-Jun-2018 10:56am PDT
Clear
Clear
 Wind from NW
Wind: NW at 6 mph , 9 km/h
Temperature : 81°F , 27°C
Heat Index : 81°F , 27°C
Dew Point : 55°F , 13°C
Humidity : 42%
Barometer : 29.99 inHg , 1015.6 hPa
Clouds : Clear
Visibility : 10 miles , 16 km
2018/06/22 17:56 KLWS 221756Z 32005KT 10SM CLR 27/13 A2999 RMK AO2 SLP146 T02670128 10267 20161 58009

 

KGEG - Spokane Intl
Updated: Fri, 22-Jun-2018 10:53am PDT
Partly cloudy
Partly cloudy
 Wind from SSW
Wind: SSW at 14 mph , 22 km/h
Temperature : 68°F , 20°C
Dew Point : 54°F , 12°C
Humidity : 60%
Barometer : 30.01 inHg , 1016.3 hPa
Clouds : Partly cloudy
Visibility : 10 miles , 16 km
2018/06/22 17:53 KGEG 221753Z 21012KT 10SM SCT025 SCT100 SCT200 20/12 A3001 RMK AO2 SLP152 T02000122 10200 20139 58001